Time;durP1;ratioP1;P1;durP2;ratioP2;P2;SDS_P1;SDS_P2;PMS_P1;PMS_P2;Temp;Humidity;BMP_temperature;BMP_pressure;BME280_temperature;BME280_humidity;BME280_pressure;Samples;Min_cycle;Max_cycle;Signal;HPM_P1;HPM_P2
2023/12/01 00:00:57;;;;;;;6.10;4.30;;;7.40;99.90;;;;;;5051606;28;20430;-72
2023/12/01 00:03:22;;;;;;;5.87;3.70;;;7.40;99.90;;;;;;5095761;28;20039;-72
2023/12/01 00:05:48;;;;;;;4.60;3.20;;;7.40;99.90;;;;;;5095695;28;20071;-72
2023/12/01 00:08:14;;;;;;;4.63;3.50;;;7.40;99.90;;;;;;5095792;28;20028;-72
2023/12/01 00:10:40;;;;;;;5.70;3.60;;;7.40;99.90;;;;;;5094408;28;20134;-73
2023/12/01 00:13:06;;;;;;;4.30;3.20;;;7.40;99.90;;;;;;5095758;28;20074;-72
2023/12/01 00:15:32;;;;;;;3.67;2.67;;;7.40;99.90;;;;;;5094328;28;20047;-73
2023/12/01 00:17:58;;;;;;;6.50;3.23;;;7.40;99.90;;;;;;5094501;28;20097;-73
2023/12/01 00:20:24;;;;;;;6.90;3.20;;;7.40;99.90;;;;;;5095404;28;20485;-73
2023/12/01 00:22:51;;;;;;;3.93;2.80;;;7.40;99.90;;;;;;5094162;28;20082;-73
2023/12/01 00:25:17;;;;;;;3.43;2.60;;;7.40;99.90;;;;;;5095381;28;20380;-72
2023/12/01 00:27:43;;;;;;;3.27;2.30;;;7.40;99.90;;;;;;5095481;28;20024;-73
2023/12/01 00:30:09;;;;;;;2.97;2.27;;;7.40;99.90;;;;;;5095061;28;20183;-72
2023/12/01 00:32:35;;;;;;;2.30;1.83;;;7.40;99.90;;;;;;5095451;28;20085;-73
2023/12/01 00:35:01;;;;;;;4.57;1.60;;;7.40;99.90;;;;;;5095541;28;20036;-72
2023/12/01 00:37:27;;;;;;;2.43;1.53;;;7.40;99.90;;;;;;5095351;28;20158;-73
2023/12/01 00:39:53;;;;;;;2.90;1.97;;;7.40;99.90;;;;;;5095528;28;20039;-72
2023/12/01 00:42:19;;;;;;;2.07;1.57;;;7.40;99.90;;;;;;5096467;28;20060;-72
2023/12/01 00:44:48;;;;;;;2.60;1.50;;;7.40;99.90;;;;;;5095921;28;20032;-71
2023/12/01 00:47:17;;;;;;;2.10;1.50;;;7.40;99.90;;;;;;5095960;28;20463;-71
2023/12/01 00:49:43;;;;;;;3.77;1.50;;;7.40;99.90;;;;;;5096088;28;20039;-70
2023/12/01 00:52:46;;;;;;;1.90;1.50;;;7.40;99.90;;;;;;5095769;28;20024;-71
2023/12/01 00:55:27;;;;;;;1.90;1.50;;;7.40;99.90;;;;;;5033105;28;20522;-72
2023/12/01 01:01:35;;;;;;;;;;;;;;;;;;;;;
2023/12/01 01:04:17;;;;;;;3.23;1.50;;;7.40;99.90;;;;;;5033122;28;20048;-71
2023/12/01 01:10:21;;;;;;;2.63;1.33;;;7.40;99.90;;;;;;4973933;28;20027;-74
2023/12/01 01:13:05;;;;;;;1.93;1.20;;;7.40;99.90;;;;;;4973866;28;20031;-72
2023/12/01 01:19:11;;;;;;;2.37;1.40;;;7.40;99.90;;;;;;4990524;28;20135;-72
2023/12/01 01:21:47;;;;;;;2.73;1.40;;;7.40;99.90;;;;;;4993224;28;20031;-71
2023/12/01 01:26:59;;;;;;;2.50;1.10;;;7.40;99.90;;;;;;5008426;28;20033;-71
2023/12/01 01:29:38;;;;;;;;;;;;;;;;;;;;;
2023/12/01 01:32:29;;;;;;;1.77;1.10;;;7.40;99.90;;;;;;5032160;28;20041;-71
2023/12/01 01:35:02;;;;;;;2.37;1.37;;;7.40;99.90;;;;;;5031605;28;20033;-72
2023/12/01 01:37:28;;;;;;;2.03;1.25;;;7.50;99.90;;;;;;5031737;28;20397;-72
2023/12/01 01:39:54;;;;;;;1.90;1.40;;;7.40;99.90;;;;;;5029639;28;20037;-73
2023/12/01 01:42:20;;;;;;;3.23;1.47;;;7.40;99.90;;;;;;5073607;28;20040;-72
2023/12/01 01:44:46;;;;;;;2.47;1.50;;;7.40;99.90;;;;;;5055716;28;20115;-72
2023/12/01 01:47:12;;;;;;;2.43;1.30;;;7.40;99.90;;;;;;5073734;28;20052;-74
2023/12/01 01:49:38;;;;;;;3.53;1.37;;;7.40;99.90;;;;;;5073673;28;20041;-72
2023/12/01 01:52:04;;;;;;;2.20;1.40;;;7.40;99.90;;;;;;5073552;28;20427;-73
2023/12/01 01:54:30;;;;;;;2.00;1.40;;;7.40;99.90;;;;;;5073275;28;20471;-72
2023/12/01 01:56:57;;;;;;;2.17;1.47;;;7.50;99.90;;;;;;5055456;28;20127;-73
2023/12/01 01:59:23;;;;;;;2.03;1.53;;;7.50;99.90;;;;;;5070736;28;20060;-73
2023/12/01 02:01:50;;;;;;;2.20;1.50;;;7.50;99.90;;;;;;5070693;28;20037;-72
2023/12/01 02:04:19;;;;;;;2.40;1.40;;;7.50;99.90;;;;;;5070886;28;20492;-72
2023/12/01 02:06:47;;;;;;;2.77;1.70;;;7.50;99.90;;;;;;5072794;28;20086;-72
2023/12/01 02:09:13;;;;;;;3.30;1.77;;;7.50;99.90;;;;;;5073227;28;20020;-72
2023/12/01 02:11:40;;;;;;;3.93;2.00;;;7.50;99.90;;;;;;5073395;28;20037;-72
2023/12/01 02:14:06;;;;;;;2.80;2.00;;;7.50;99.90;;;;;;5056842;28;20503;-72
2023/12/01 02:16:32;;;;;;;2.30;1.60;;;7.50;99.90;;;;;;5093235;28;20039;-72
2023/12/01 02:18:59;;;;;;;1.97;1.50;;;7.50;99.90;;;;;;5093384;28;20411;-72
2023/12/01 02:21:25;;;;;;;1.70;1.43;;;7.50;99.90;;;;;;5093723;28;20036;-71
2023/12/01 02:23:55;;;;;;;4.37;1.50;;;7.50;99.90;;;;;;5094565;28;20070;-71
2023/12/01 02:26:25;;;;;;;3.03;1.60;;;7.50;99.90;;;;;;5094008;28;20052;-71
2023/12/01 02:28:59;;;;;;;3.80;1.80;;;7.50;99.90;;;;;;5094146;28;20414;-72
2023/12/01 02:32:12;;;;;;;3.10;1.90;;;7.50;99.90;;;;;;5094073;28;20078;-71
2023/12/01 02:35:12;;;;;;;2.95;1.70;;;7.50;99.90;;;;;;5030938;28;20481;-71
2023/12/01 02:38:09;;;;;;;2.13;1.67;;;7.50;99.90;;;;;;5031222;28;20479;-72
2023/12/01 02:41:19;;;;;;;3.23;1.87;;;7.50;99.90;;;;;;5010119;28;20425;-72
2023/12/01 02:46:50;;;;;;;3.23;1.90;;;7.60;99.90;;;;;;5025766;28;20037;-73
2023/12/01 02:52:03;;;;;;;2.73;2.03;;;7.50;99.90;;;;;;5017063;28;20547;-72
2023/12/01 02:54:29;;;;;;;2.97;2.13;;;7.60;99.90;;;;;;5030646;28;20037;-71
2023/12/01 03:06:37;;;;;;;1.80;1.17;;;7.60;99.90;;;;;;5016823;28;20072;-72
2023/12/01 03:12:07;;;;;;;2.90;1.40;;;7.60;99.90;;;;;;4969052;28;20039;-74
2023/12/01 03:17:28;;;;;;;3.67;1.13;;;7.60;99.90;;;;;;4991847;28;20073;-75
2023/12/01 03:19:54;;;;;;;0.97;0.80;;;7.60;99.90;;;;;;5068084;28;20437;-74
2023/12/01 03:22:20;;;;;;;1.67;0.83;;;7.60;99.90;;;;;;5072773;28;20060;-73
2023/12/01 03:24:47;;;;;;;0.90;0.60;;;7.60;99.90;;;;;;5054628;28;20070;-75
2023/12/01 03:27:18;;;;;;;1.20;0.70;;;7.60;99.90;;;;;;5072568;28;20036;-74
2023/12/01 03:29:44;;;;;;;1.83;0.80;;;7.60;99.90;;;;;;5072517;28;20075;-74
2023/12/01 03:32:10;;;;;;;1.20;0.70;;;7.60;99.90;;;;;;5072553;28;20091;-74
2023/12/01 03:34:36;;;;;;;1.40;0.80;;;7.60;99.90;;;;;;5072580;28;20036;-76
2023/12/01 03:37:02;;;;;;;0.80;0.60;;;7.60;99.90;;;;;;5072414;28;20094;-72
2023/12/01 03:39:30;;;;;;;0.70;0.60;;;7.60;99.90;;;;;;5054507;28;20097;-72
2023/12/01 03:41:56;;;;;;;0.50;0.50;;;7.60;99.90;;;;;;5071919;28;20035;-73
2023/12/01 03:44:21;;;;;;;1.03;0.67;;;7.70;99.90;;;;;;5072140;28;20037;-71
2023/12/01 03:46:48;;;;;;;1.10;0.70;;;7.70;99.90;;;;;;5072129;28;20106;-75
2023/12/01 03:49:13;;;;;;;1.03;0.60;;;7.70;99.90;;;;;;5072063;28;20031;-75
2023/12/01 03:51:39;;;;;;;2.17;1.00;;;7.60;99.90;;;;;;5073472;28;20036;-75
2023/12/01 03:54:05;;;;;;;0.80;0.70;;;7.60;99.90;;;;;;5075663;28;20028;-75
2023/12/01 03:56:31;;;;;;;0.80;0.63;;;7.60;99.90;;;;;;5075591;28;20039;-74
2023/12/01 03:58:57;;;;;;;1.27;0.80;;;7.70;99.90;;;;;;5075767;28;20033;-74
2023/12/01 04:01:25;;;;;;;1.10;0.77;;;7.70;99.90;;;;;;5076355;28;20021;-72
2023/12/01 04:03:51;;;;;;;0.97;0.63;;;7.70;99.90;;;;;;5076780;28;20032;-74
2023/12/01 04:06:17;;;;;;;1.53;0.63;;;7.70;99.90;;;;;;5076557;28;20052;-71
2023/12/01 04:08:43;;;;;;;0.90;0.60;;;7.70;99.90;;;;;;5076683;28;20082;-73
2023/12/01 04:11:12;;;;;;;1.27;0.60;;;7.70;99.90;;;;;;5076333;28;20045;-71
2023/12/01 04:13:47;;;;;;;10.83;6.30;;;7.70;99.90;;;;;;5076355;28;20036;-71
2023/12/01 04:16:34;;;;;;;8.63;5.57;;;7.70;99.90;;;;;;5091055;28;20040;-70
2023/12/01 04:19:28;;;;;;;2.83;1.90;;;7.70;99.90;;;;;;5095741;28;20435;-72
2023/12/01 04:21:54;;;;;;;1.43;0.97;;;7.70;99.90;;;;;;5095753;28;20365;-72
2023/12/01 04:28:08;;;;;;;1.27;0.70;;;7.70;99.90;;;;;;4993334;28;20049;-73
2023/12/01 04:30:37;;;;;;;1.13;0.73;;;7.70;99.90;;;;;;4994088;28;20539;-71
2023/12/01 04:33:03;;;;;;;0.93;0.60;;;7.70;99.90;;;;;;4994283;28;20038;-71
2023/12/01 04:35:31;;;;;;;1.17;0.60;;;7.70;99.90;;;;;;4994051;28;20098;-71
2023/12/01 04:38:09;;;;;;;1.13;0.70;;;7.70;99.90;;;;;;5000727;28;20035;-72
2023/12/01 04:40:47;;;;;;;1.53;1.13;;;7.70;99.90;;;;;;5013896;28;20034;-73
2023/12/01 04:43:17;;;;;;;2.47;1.53;;;7.70;99.90;;;;;;5030581;28;20376;-74
2023/12/01 04:45:44;;;;;;;1.63;1.40;;;7.70;99.90;;;;;;5095392;28;20411;-72
2023/12/01 04:48:36;;;;;;;2.73;1.70;;;7.70;99.90;;;;;;5095095;28;20396;-71
2023/12/01 04:51:27;;;;;;;2.53;1.70;;;7.70;99.90;;;;;;5071582;28;20110;-72
2023/12/01 04:54:16;;;;;;;2.50;2.17;;;7.70;99.90;;;;;;5042876;28;20508;-71
2023/12/01 05:00:34;;;;;;;2.23;1.63;;;7.70;99.90;;;;;;5033046;28;20172;-72
2023/12/01 05:03:05;;;;;;;2.40;2.03;;;7.70;99.90;;;;;;5052265;28;20106;-73
2023/12/01 05:05:34;;;;;;;2.30;1.90;;;7.70;99.90;;;;;;5087870;28;20448;-75
2023/12/01 05:08:04;;;;;;;2.13;1.93;;;7.70;99.90;;;;;;5092404;28;20376;-74
2023/12/01 05:10:32;;;;;;;2.87;2.40;;;7.70;99.90;;;;;;5093336;28;20465;-75
2023/12/01 05:13:02;;;;;;;2.97;2.13;;;7.70;99.90;;;;;;5079114;28;20416;-74
2023/12/01 05:15:30;;;;;;;4.53;2.30;;;7.70;99.90;;;;;;5098032;28;20035;-74
2023/12/01 05:18:01;;;;;;;3.23;2.60;;;7.70;99.90;;;;;;5115316;28;20443;-73
2023/12/01 05:20:28;;;;;;;2.37;2.13;;;7.70;99.90;;;;;;5114774;28;20107;-73
2023/12/01 05:22:56;;;;;;;3.47;2.60;;;7.70;99.90;;;;;;5096456;28;20566;-73
2023/12/01 05:25:25;;;;;;;3.40;2.87;;;7.70;99.90;;;;;;5114446;28;20499;-72
2023/12/01 05:27:59;;;;;;;2.73;2.40;;;7.70;99.90;;;;;;5114638;28;20034;-72
2023/12/01 05:30:33;;;;;;;2.87;2.50;;;7.70;99.90;;;;;;5114550;28;20027;-72
2023/12/01 05:33:00;;;;;;;3.37;2.40;;;7.70;99.90;;;;;;5114815;28;20031;-74
2023/12/01 05:35:26;;;;;;;2.90;2.60;;;7.70;99.90;;;;;;5114451;28;20506;-75
2023/12/01 05:37:54;;;;;;;2.30;2.10;;;7.70;99.90;;;;;;5114388;28;20475;-74
2023/12/01 05:40:23;;;;;;;2.50;2.10;;;7.80;99.90;;;;;;5114351;28;20046;-75
2023/12/01 05:42:52;;;;;;;3.23;2.23;;;7.80;99.90;;;;;;5114282;28;20039;-72
2023/12/01 05:45:20;;;;;;;3.30;2.93;;;7.80;99.90;;;;;;5114933;28;20036;-74
2023/12/01 05:47:47;;;;;;;3.10;2.63;;;7.80;99.90;;;;;;5115399;28;20116;-74
2023/12/01 05:50:24;;;;;;;3.63;2.93;;;7.80;99.90;;;;;;5115138;28;20421;-73
2023/12/01 05:52:55;;;;;;;4.60;2.43;;;7.80;99.90;;;;;;5113878;28;20114;-74
2023/12/01 05:55:35;;;;;;;3.10;2.20;;;7.90;99.90;;;;;;5114936;28;20035;-74
2023/12/01 05:58:11;;;;;;;3.20;2.30;;;7.80;99.90;;;;;;5114855;28;20032;-73
2023/12/01 06:00:41;;;;;;;2.47;2.23;;;7.80;99.90;;;;;;5115055;28;20023;-74
2023/12/01 06:03:11;;;;;;;2.87;2.13;;;7.80;99.90;;;;;;5115035;28;20395;-73
2023/12/01 06:05:39;;;;;;;2.53;1.97;;;7.80;99.90;;;;;;5114323;28;20039;-76
2023/12/01 06:08:08;;;;;;;3.10;2.40;;;7.90;99.90;;;;;;5096071;28;20024;-75
2023/12/01 06:11:08;;;;;;;3.10;2.43;;;7.80;99.90;;;;;;5114002;28;20428;-74
2023/12/01 06:13:34;;;;;;;4.10;2.50;;;7.90;99.90;;;;;;5090952;28;20115;-74
2023/12/01 06:16:06;;;;;;;4.23;2.30;;;7.90;99.90;;;;;;5100831;28;20062;-72
2023/12/01 06:18:41;;;;;;;4.35;2.38;;;7.90;99.90;;;;;;5093982;28;20040;-74
2023/12/01 06:21:10;;;;;;;5.97;2.97;;;7.90;99.90;;;;;;5092349;28;20127;-73
2023/12/01 06:23:45;;;;;;;5.30;3.30;;;7.90;99.90;;;;;;5093318;28;20438;-74
2023/12/01 06:26:11;;;;;;;4.53;2.80;;;7.90;99.90;;;;;;5093369;28;20044;-74
2023/12/01 06:29:03;;;;;;;3.00;2.60;;;7.90;99.90;;;;;;5093469;28;20218;-71
2023/12/01 06:34:22;;;;;;;4.70;3.17;;;7.90;99.90;;;;;;5085605;28;20545;-72
2023/12/01 06:36:48;;;;;;;3.90;2.63;;;7.90;99.90;;;;;;5093286;28;20036;-73
2023/12/01 06:39:34;;;;;;;3.20;2.70;;;7.90;99.90;;;;;;5091722;28;20040;-73
2023/12/01 06:42:00;;;;;;;4.23;3.13;;;7.90;99.90;;;;;;5091772;28;20396;-74
2023/12/01 06:44:26;;;;;;;4.57;3.50;;;8.00;99.90;;;;;;5092091;28;20048;-74
2023/12/01 06:46:52;;;;;;;3.93;3.10;;;8.00;99.90;;;;;;5092805;28;20456;-74
2023/12/01 06:49:19;;;;;;;4.10;3.20;;;7.90;99.90;;;;;;5073280;28;20119;-73
2023/12/01 06:51:45;;;;;;;4.00;3.33;;;7.90;99.90;;;;;;5089006;28;20067;-74
2023/12/01 06:54:11;;;;;;;4.83;4.33;;;8.00;99.90;;;;;;5092860;28;20036;-74
2023/12/01 06:56:40;;;;;;;8.70;4.20;;;8.00;99.90;;;;;;5092893;28;20107;-73
2023/12/01 06:59:06;;;;;;;7.47;5.40;;;7.90;99.90;;;;;;5092532;28;20037;-73
2023/12/01 07:01:32;;;;;;;5.37;4.63;;;8.00;99.90;;;;;;5092734;28;20396;-73
2023/12/01 07:03:58;;;;;;;5.43;4.30;;;8.00;99.90;;;;;;5092535;28;20028;-74
2023/12/01 07:06:23;;;;;;;4.53;4.00;;;8.00;99.90;;;;;;5092372;28;20038;-74
2023/12/01 07:08:49;;;;;;;4.73;3.63;;;8.00;99.90;;;;;;5092707;28;20029;-73
2023/12/01 07:11:16;;;;;;;6.40;3.40;;;8.00;99.90;;;;;;5092474;28;20074;-75
2023/12/01 07:13:42;;;;;;;4.30;3.33;;;8.00;99.90;;;;;;5089864;28;20036;-74
2023/12/01 07:16:11;;;;;;;5.70;3.97;;;8.10;99.90;;;;;;5102344;28;20048;-75
2023/12/01 07:18:38;;;;;;;6.43;3.73;;;8.10;99.90;;;;;;5112605;28;20475;-75
2023/12/01 07:21:06;;;;;;;6.10;3.60;;;8.10;99.90;;;;;;5113142;28;20054;-74
2023/12/01 07:23:36;;;;;;;4.10;2.90;;;8.10;99.90;;;;;;5113044;28;20119;-73
2023/12/01 07:26:02;;;;;;;4.43;3.60;;;8.10;99.90;;;;;;5113790;28;20418;-73
2023/12/01 07:28:29;;;;;;;4.30;3.30;;;8.10;99.90;;;;;;5117729;28;20372;-73
2023/12/01 07:30:55;;;;;;;4.67;3.43;;;8.20;99.90;;;;;;5082857;28;20453;-73
2023/12/01 07:33:27;;;;;;;4.50;3.10;;;8.10;99.90;;;;;;5076658;28;20404;-72
2023/12/01 07:37:22;;;;;;;4.72;3.28;;;8.10;99.90;;;;;;5076774;28;20446;-73
2023/12/01 07:40:27;;;;;;;4.37;3.43;;;8.20;99.90;;;;;;4935451;29;20036;-74
2023/12/01 07:43:03;;;;;;;5.73;4.70;;;8.20;99.90;;;;;;4933091;29;20796;-73
2023/12/01 07:45:34;;;;;;;6.17;4.47;;;8.20;99.90;;;;;;4936203;29;20119;-73
2023/12/01 07:48:13;;;;;;;4.27;3.70;;;8.20;99.90;;;;;;4936606;29;20028;-74
2023/12/01 07:51:02;;;;;;;;;;;;;;;;;;;;;
2023/12/01 07:53:51;;;;;;;6.63;3.80;;;8.20;99.90;;;;;;5028017;28;20044;-74
2023/12/01 07:56:21;;;;;;;5.93;4.87;;;8.20;99.90;;;;;;5029589;28;20083;-74
2023/12/01 07:59:41;;;;;;;5.93;5.30;;;8.20;99.90;;;;;;5031412;28;20037;-73
2023/12/01 08:02:32;;;;;;;6.63;4.87;;;8.20;99.90;;;;;;4993685;28;20026;-73
2023/12/01 08:05:20;;;;;;;8.33;4.40;;;8.30;99.90;;;;;;4994609;28;20458;-74
2023/12/01 08:14:53;;;;;;;5.80;3.90;;;8.30;99.90;;;;;;4993959;28;20522;-73
2023/12/01 08:17:52;;;;;;;6.23;3.33;;;8.30;99.90;;;;;;5032963;28;20091;-74
2023/12/01 08:20:11;;;;;;;5.97;3.90;;;8.30;99.90;;;;;;5101487;28;20085;-75
2023/12/01 08:22:38;;;;;;;6.07;4.37;;;8.40;99.90;;;;;;5112753;28;20035;-76
2023/12/01 08:25:05;;;;;;;9.13;5.10;;;8.40;99.90;;;;;;5096362;28;20127;-74
2023/12/01 08:27:31;;;;;;;6.00;4.73;;;8.40;99.90;;;;;;5115540;28;20490;-74
2023/12/01 08:29:57;;;;;;;9.27;4.00;;;8.40;99.90;;;;;;5115591;28;20072;-75
2023/12/01 08:32:23;;;;;;;5.10;3.50;;;8.40;99.90;;;;;;5115409;28;20118;-74
2023/12/01 08:34:50;;;;;;;4.27;3.10;;;8.40;99.90;;;;;;5115549;28;20035;-77
2023/12/01 08:37:17;;;;;;;4.50;3.53;;;8.40;99.90;;;;;;5092691;28;20479;-73
2023/12/01 08:39:44;;;;;;;8.07;5.30;;;8.40;99.90;;;;;;5075925;28;20024;-76
2023/12/01 08:42:10;;;;;;;16.73;9.23;;;8.40;99.90;;;;;;5076822;28;20511;-73
2023/12/01 08:44:35;;;;;;;10.27;8.67;;;8.50;99.90;;;;;;5094833;28;20476;-73
2023/12/01 08:47:02;;;;;;;9.03;6.70;;;8.40;99.90;;;;;;5094835;28;20051;-73
2023/12/01 08:49:28;;;;;;;8.70;5.97;;;8.50;99.90;;;;;;5094659;28;20537;-73
2023/12/01 08:51:55;;;;;;;10.07;5.67;;;8.50;99.90;;;;;;5076414;28;20066;-74
2023/12/01 08:54:22;;;;;;;8.00;4.87;;;8.50;99.90;;;;;;5094644;28;20043;-77
2023/12/01 08:56:48;;;;;;;7.67;5.27;;;8.50;99.90;;;;;;5094659;28;20059;-77
2023/12/01 08:59:14;;;;;;;8.00;5.93;;;8.50;99.90;;;;;;5095045;28;20040;-78
2023/12/01 09:01:40;;;;;;;9.47;5.93;;;8.50;99.90;;;;;;5095622;28;20065;-78
2023/12/01 09:04:07;;;;;;;12.57;7.97;;;8.50;99.90;;;;;;5095807;28;20051;-73
2023/12/01 09:06:38;;;;;;;12.13;9.20;;;8.50;99.90;;;;;;5095508;28;20442;-72
2023/12/01 09:09:15;;;;;;;;;;;;;;;;;;;;;
2023/12/01 09:15:12;;;;;;;10.80;8.37;;;8.50;99.90;;;;;;5084284;28;20035;-74
2023/12/01 09:18:07;;;;;;;13.45;8.95;;;8.60;99.90;;;;;;5074890;28;20415;-73
2023/12/01 09:21:15;;;;;;;12.33;9.30;;;8.60;99.90;;;;;;5074236;28;20388;-73
2023/12/01 09:23:44;;;;;;;13.30;8.77;;;8.60;99.90;;;;;;5032113;28;20045;-74
2023/12/01 09:26:24;;;;;;;11.40;8.23;;;8.50;99.90;;;;;;5074331;28;20048;-75
2023/12/01 09:29:17;;;;;;;12.13;8.63;;;8.60;99.90;;;;;;5074328;28;20033;-73
2023/12/01 09:31:57;;;;;;;11.93;8.17;;;8.60;99.90;;;;;;5052194;28;20418;-73
2023/12/01 09:34:23;;;;;;;11.17;7.90;;;8.60;99.90;;;;;;5053578;28;20400;-77
2023/12/01 09:36:52;;;;;;;10.23;7.17;;;8.60;99.90;;;;;;5054357;28;20080;-78
2023/12/01 09:39:39;;;;;;;10.13;7.70;;;8.60;99.90;;;;;;5053599;28;20397;-77
2023/12/01 09:42:09;;;;;;;12.40;8.50;;;8.60;99.90;;;;;;5053364;28;20052;-79
2023/12/01 09:48:19;;;;;;;13.73;10.03;;;8.60;99.90;;;;;;5031792;28;20041;-78
2023/12/01 09:54:10;;;;;;;20.23;12.83;;;8.60;99.90;;;;;;4972438;28;20050;-78
2023/12/01 09:57:19;;;;;;;15.97;12.90;;;8.70;99.90;;;;;;4972624;28;20035;-76
2023/12/01 09:59:47;;;;;;;24.23;18.93;;;8.70;99.90;;;;;;4974824;28;20133;-73
2023/12/01 10:02:13;;;;;;;22.93;15.70;;;8.70;99.90;;;;;;5025070;28;20048;-75
2023/12/01 10:04:39;;;;;;;19.97;15.20;;;8.70;99.90;;;;;;5043051;28;20419;-76
2023/12/01 10:07:05;;;;;;;19.60;15.63;;;8.70;99.90;;;;;;5072682;28;20048;-74
2023/12/01 10:09:32;;;;;;;17.00;11.73;;;8.70;99.90;;;;;;5072565;28;20455;-74
2023/12/01 10:12:11;;;;;;;18.67;11.60;;;8.70;99.90;;;;;;5073377;28;20036;-73
2023/12/01 10:15:07;;;;;;;21.03;11.10;;;8.70;99.90;;;;;;5095660;23;20075;-77
2023/12/01 10:17:45;;;;;;;18.20;10.97;;;8.80;99.90;;;;;;5085246;28;20104;-76
2023/12/01 10:20:18;;;;;;;18.30;10.47;;;8.80;99.90;;;;;;5075106;28;20547;-75
2023/12/01 10:22:44;;;;;;;16.88;12.20;;;8.80;99.90;;;;;;5093216;28;20024;-77
2023/12/01 10:25:12;;;;;;;14.83;11.90;;;8.80;99.90;;;;;;5093389;28;20032;-74
2023/12/01 10:27:39;;;;;;;13.93;11.23;;;8.80;99.90;;;;;;5093208;28;20388;-75
2023/12/01 10:30:13;;;;;;;14.87;10.83;;;8.80;99.90;;;;;;5074827;28;20437;-75
2023/12/01 10:32:41;;;;;;;15.87;11.33;;;8.90;99.90;;;;;;5092856;28;20040;-75
2023/12/01 10:35:07;;;;;;;15.57;11.80;;;8.80;99.90;;;;;;5092751;28;20114;-74
2023/12/01 10:37:35;;;;;;;15.47;10.50;;;8.80;99.90;;;;;;5092346;28;20442;-74
2023/12/01 10:40:05;;;;;;;16.00;11.17;;;8.80;99.90;;;;;;5092260;28;20036;-75
2023/12/01 10:42:34;;;;;;;17.03;11.13;;;8.80;99.90;;;;;;5091068;28;20047;-74
2023/12/01 10:45:01;;;;;;;14.13;10.73;;;8.80;99.90;;;;;;5092581;28;20384;-72
2023/12/01 10:47:28;;;;;;;16.73;10.83;;;8.90;99.90;;;;;;5092845;28;20491;-74
2023/12/01 10:49:58;;;;;;;15.47;10.20;;;8.90;99.90;;;;;;5092705;28;20506;-74
2023/12/01 10:52:25;;;;;;;15.97;10.90;;;8.90;99.90;;;;;;5092471;28;20043;-76
2023/12/01 10:54:52;;;;;;;13.93;10.23;;;8.90;99.90;;;;;;5092573;28;20126;-74
2023/12/01 10:57:35;;;;;;;17.23;12.07;;;8.90;99.90;;;;;;5074190;28;20447;-73
2023/12/01 11:00:09;;;;;;;;;;;9.00;99.90;;;;;;5093059;28;20055;-77
2023/12/01 11:02:38;;;;;;;20.27;11.83;;;9.00;99.90;;;;;;5092289;28;20256;-76
2023/12/01 11:05:07;;;;;;;15.40;11.90;;;9.00;99.90;;;;;;5093203;28;20395;-76
2023/12/01 11:08:03;;;;;;;19.03;12.27;;;9.00;99.90;;;;;;5093240;28;20493;-75
2023/12/01 11:11:07;;;;;;;18.83;12.77;;;9.00;99.90;;;;;;5093589;28;20032;-75
2023/12/01 11:14:16;;;;;;;27.13;15.30;;;9.00;99.90;;;;;;5092965;28;20036;-73
2023/12/01 11:17:04;;;;;;;19.60;13.60;;;9.10;99.90;;;;;;5073150;28;20041;-73
2023/12/01 11:19:57;;;;;;;23.90;15.37;;;9.10;99.90;;;;;;5072847;28;20044;-73
2023/12/01 11:22:37;;;;;;;22.23;15.17;;;9.10;99.90;;;;;;5072595;28;20400;-73
2023/12/01 11:25:32;;;;;;;27.07;15.93;;;9.10;99.90;;;;;;5072949;28;20451;-73
2023/12/01 11:35:32;;;;;;;30.13;15.43;;;9.20;99.90;;;;;;4952483;28;20031;-73
2023/12/01 11:38:30;;;;;;;;;;;;;;;;;;;;;
2023/12/01 11:41:47;;;;;;;21.57;15.47;;;9.20;99.90;;;;;;5029306;28;20279;-75
2023/12/01 11:45:07;;;;;;;19.27;14.33;;;9.20;99.90;;;;;;5036694;28;20378;-75
2023/12/01 11:47:42;;;;;;;23.07;14.37;;;9.20;99.90;;;;;;4995278;28;20046;-78
2023/12/01 11:54:26;;;;;;;23.23;15.60;;;9.20;99.90;;;;;;4990291;28;20026;-76
2023/12/01 11:56:58;;;;;;;27.23;17.17;;;9.20;99.90;;;;;;4990776;28;20046;-72
2023/12/01 11:59:25;;;;;;;32.57;18.70;;;9.20;99.90;;;;;;5043736;28;20029;-74
2023/12/01 12:01:56;;;;;;;36.10;21.07;;;9.20;99.90;;;;;;5072273;28;20385;-74
2023/12/01 12:04:23;;;;;;;46.20;25.43;;;9.20;99.90;;;;;;5053204;28;20055;-74
2023/12/01 12:06:49;;;;;;;56.90;30.13;;;9.20;99.90;;;;;;5072100;28;20373;-74
2023/12/01 12:09:17;;;;;;;48.97;30.10;;;9.20;99.90;;;;;;5071867;28;20041;-74
2023/12/01 12:11:52;;;;;;;44.80;26.97;;;9.20;99.90;;;;;;5071617;28;20037;-75
2023/12/01 12:14:21;;;;;;;49.37;26.90;;;9.20;99.90;;;;;;5075987;28;20059;-74
2023/12/01 12:16:47;;;;;;;41.50;24.80;;;9.20;99.90;;;;;;5074426;28;20465;-74
2023/12/01 12:19:13;;;;;;;42.93;25.17;;;9.30;99.90;;;;;;5094701;28;20028;-74
2023/12/01 12:21:39;;;;;;;42.97;24.70;;;9.30;99.90;;;;;;5095499;28;20036;-75
2023/12/01 12:24:05;;;;;;;37.83;24.43;;;9.30;99.90;;;;;;5095421;28;20495;-77
2023/12/01 12:26:31;;;;;;;33.20;22.30;;;9.30;99.90;;;;;;5095332;28;20044;-74
2023/12/01 12:28:58;;;;;;;30.37;21.60;;;9.30;99.90;;;;;;5095374;28;20039;-75
2023/12/01 12:31:35;;;;;;;29.43;21.57;;;9.30;99.90;;;;;;5095706;28;20082;-73
2023/12/01 12:34:03;;;;;;;31.33;21.70;;;9.30;99.90;;;;;;5095348;28;20073;-74
2023/12/01 12:36:30;;;;;;;37.37;22.40;;;9.40;99.90;;;;;;5095188;28;20507;-74
2023/12/01 12:39:03;;;;;;;40.73;23.50;;;9.30;99.90;;;;;;5092932;28;20050;-74
2023/12/01 12:41:36;;;;;;;39.03;24.45;;;9.40;99.90;;;;;;5093193;28;20463;-74
2023/12/01 12:44:06;;;;;;;31.93;23.23;;;9.30;99.90;;;;;;5093685;28;20387;-73
2023/12/01 12:46:34;;;;;;;36.97;24.60;;;9.40;99.90;;;;;;5095793;28;20047;-72
2023/12/01 12:49:06;;;;;;;40.10;25.03;;;9.40;99.90;;;;;;5095771;28;20373;-73
2023/12/01 12:51:38;;;;;;;36.45;23.75;;;9.40;99.90;;;;;;5095528;28;20078;-73
2023/12/01 12:54:44;;;;;;;39.65;24.25;;;9.40;99.90;;;;;;5078132;28;20454;-72
2023/12/01 12:57:42;;;;;;;47.73;27.57;;;9.40;99.90;;;;;;5095674;28;20411;-72
2023/12/01 13:00:41;;;;;;;57.63;32.97;;;9.50;99.90;;;;;;5083302;28;20036;-73
2023/12/01 13:03:22;;;;;;;50.87;30.60;;;9.50;99.90;;;;;;5045425;28;20075;-74
2023/12/01 13:09:07;;;;;;;59.03;32.97;;;9.50;99.90;;;;;;5062250;28;20062;-72
2023/12/01 13:11:43;;;;;;;48.87;29.30;;;9.60;99.90;;;;;;5059644;28;20043;-73
2023/12/01 13:14:09;;;;;;;58.70;31.43;;;9.60;99.90;;;;;;5093836;28;20048;-75
2023/12/01 13:16:39;;;;;;;49.70;27.20;;;9.60;99.90;;;;;;5094558;28;20028;-81
2023/12/01 13:22:44;;;;;;;;;;;;;;;;;;;;;
2023/12/01 13:25:13;;;;;;;56.03;30.40;;;9.70;99.90;;;;;;5087451;28;20032;-75
2023/12/01 13:28:32;;;;;;;64.73;30.90;;;9.70;99.90;;;;;;5094363;28;20063;-74
2023/12/01 13:30:59;;;;;;;59.67;28.73;;;9.70;99.90;;;;;;5051465;28;20099;-72
2023/12/01 13:33:31;;;;;;;61.00;30.03;;;9.70;99.90;;;;;;5051155;28;20386;-74
2023/12/01 13:36:24;;;;;;;58.73;31.17;;;9.80;99.90;;;;;;5076430;28;20408;-76
2023/12/01 13:38:51;;;;;;;53.92;32.97;;;9.80;99.90;;;;;;5083999;28;20683;-74
2023/12/01 13:41:17;;;;;;;59.57;31.40;;;9.80;99.90;;;;;;5093761;28;20089;-75
2023/12/01 13:43:43;;;;;;;145.90;89.23;;;9.80;99.90;;;;;;5075605;28;20391;-74
2023/12/01 13:46:09;;;;;;;143.00;90.90;;;9.80;99.90;;;;;;5094070;28;20044;-75
2023/12/01 13:48:35;;;;;;;78.57;41.80;;;9.80;99.90;;;;;;5076152;28;20365;-75
2023/12/01 13:51:01;;;;;;;66.50;35.67;;;9.90;99.90;;;;;;5093899;28;20386;-74
2023/12/01 13:53:27;;;;;;;56.70;31.88;;;9.90;99.90;;;;;;5093810;28;20110;-74
2023/12/01 13:55:53;;;;;;;66.22;34.72;;;9.90;99.90;;;;;;5093831;28;20036;-74
2023/12/01 13:58:19;;;;;;;66.93;34.45;;;9.90;99.90;;;;;;5093929;28;20039;-73
2023/12/01 14:00:45;;;;;;;54.05;32.53;;;9.90;99.90;;;;;;5093815;28;20028;-73
2023/12/01 14:03:11;;;;;;;61.92;33.55;;;9.90;99.90;;;;;;5094042;28;20044;-74
2023/12/01 14:05:37;;;;;;;63.63;32.80;;;10.00;99.90;;;;;;5075097;28;20131;-73
2023/12/01 14:08:04;;;;;;;66.68;36.58;;;9.90;99.90;;;;;;5093291;28;20020;-73
2023/12/01 14:10:30;;;;;;;59.47;33.25;;;10.00;99.90;;;;;;5093708;28;20081;-75
2023/12/01 14:12:55;;;;;;;56.13;31.60;;;10.00;99.90;;;;;;5093763;28;20107;-73
2023/12/01 14:15:21;;;;;;;68.55;35.65;;;10.00;99.90;;;;;;5093386;28;20051;-75
2023/12/01 14:17:48;;;;;;;62.70;34.20;;;10.00;99.90;;;;;;5093907;28;20107;-78
2023/12/01 14:20:14;;;;;;;59.45;35.97;;;10.00;99.90;;;;;;5094180;28;20105;-77
2023/12/01 14:22:40;;;;;;;58.25;35.90;;;10.00;99.90;;;;;;5093895;28;20486;-73
2023/12/01 14:25:07;;;;;;;59.50;34.30;;;10.10;99.90;;;;;;5093871;28;20028;-73
2023/12/01 14:28:11;;;;;;;70.32;38.20;;;10.10;99.90;;;;;;5092927;28;20433;-71
2023/12/01 14:31:18;;;;;;;56.63;34.33;;;10.10;99.90;;;;;;5083745;28;20036;-73
2023/12/01 14:34:12;;;;;;;56.55;32.20;;;10.10;99.90;;;;;;5093132;28;20036;-72
2023/12/01 14:36:38;;;;;;;61.08;34.58;;;10.10;99.90;;;;;;5090814;28;20401;-73
2023/12/01 14:39:33;;;;;;;64.30;33.78;;;10.10;99.90;;;;;;5089003;28;20372;-73
2023/12/01 14:42:14;;;;;;;63.90;33.85;;;10.10;99.90;;;;;;5060420;28;20467;-73
2023/12/01 14:44:52;;;;;;;59.50;34.10;;;10.10;99.90;;;;;;5081534;28;20380;-73
2023/12/01 14:48:00;;;;;;;70.60;37.20;;;10.10;99.90;;;;;;5079308;28;20040;-75